createdAt,value
2023-03-22T00:00:52.472Z,0.00
2023-03-22T00:01:53.621Z,0.00
2023-03-22T00:02:53.888Z,0.00
2023-03-22T00:03:54.548Z,0.00
2023-03-22T00:04:55.237Z,0.00
2023-03-22T00:05:55.931Z,0.00
2023-03-22T00:06:56.653Z,0.00
2023-03-22T00:07:57.370Z,0.00
2023-03-22T00:08:58.022Z,0.00
2023-03-22T00:09:58.733Z,0.00
2023-03-22T00:10:59.446Z,0.00
2023-03-22T00:12:00.610Z,0.00
2023-03-22T00:13:00.819Z,0.00
2023-03-22T00:14:01.521Z,0.00
2023-03-22T00:15:02.225Z,0.00
2023-03-22T00:16:03.134Z,0.00
2023-03-22T00:17:05.202Z,0.00
2023-03-22T00:18:04.426Z,0.00
2023-03-22T00:19:26.126Z,0.00
2023-03-22T00:20:05.825Z,0.00
2023-03-22T00:21:06.535Z,0.00
2023-03-22T00:22:07.245Z,0.00
2023-03-22T00:23:07.981Z,0.00
2023-03-22T00:24:08.758Z,0.00
2023-03-22T00:25:09.464Z,0.00
2023-03-22T00:26:10.197Z,0.00
2023-03-22T00:27:11.112Z,0.00
2023-03-22T00:28:11.819Z,0.00
2023-03-22T00:29:12.530Z,0.00
2023-03-22T00:30:13.232Z,0.00
2023-03-22T00:31:13.957Z,0.00
2023-03-22T00:32:14.671Z,0.00
2023-03-22T00:33:15.412Z,0.00
2023-03-22T00:34:16.103Z,0.00
2023-03-22T00:35:16.809Z,0.00
2023-03-22T00:36:17.524Z,0.00
2023-03-22T00:37:18.234Z,0.00
2023-03-22T00:38:19.707Z,0.00
2023-03-22T00:39:19.742Z,0.00
2023-03-22T00:40:20.440Z,0.00
2023-03-22T00:41:21.170Z,0.00
2023-03-22T00:42:21.857Z,0.00
2023-03-22T00:43:22.566Z,0.00
2023-03-22T00:44:23.270Z,0.00
2023-03-22T00:45:23.980Z,0.00
2023-03-22T00:46:24.731Z,0.00
2023-03-22T00:47:25.616Z,0.00
2023-03-22T00:48:26.358Z,0.00
2023-03-22T00:49:27.032Z,0.00
2023-03-22T00:50:27.750Z,0.00
2023-03-22T00:51:28.454Z,0.00
2023-03-22T00:52:29.630Z,0.00
2023-03-22T00:53:29.849Z,0.00
2023-03-22T00:54:30.529Z,0.00
2023-03-22T00:55:31.234Z,0.00
2023-03-22T00:56:31.941Z,0.00
2023-03-22T00:57:32.661Z,0.00
2023-03-22T00:58:54.379Z,0.00
2023-03-22T00:59:34.072Z,0.00
2023-03-22T01:00:34.778Z,0.00
2023-03-22T01:01:35.578Z,0.00
2023-03-22T01:02:36.622Z,0.00
2023-03-22T01:03:36.894Z,0.00
2023-03-22T01:04:37.540Z,0.00
2023-03-22T01:05:38.248Z,0.00
2023-03-22T01:06:38.980Z,0.00
2023-03-22T01:07:40.127Z,0.00
2023-03-22T01:08:40.359Z,0.00
2023-03-22T01:09:41.046Z,0.00
2023-03-22T01:10:41.892Z,0.00
2023-03-22T01:11:42.627Z,0.00
2023-03-22T01:12:43.616Z,0.00
2023-03-22T01:13:44.323Z,0.00
2023-03-22T01:14:45.032Z,0.00
2023-03-22T01:15:45.746Z,0.00
2023-03-22T01:16:46.566Z,0.00
2023-03-22T01:17:48.592Z,0.00
2023-03-22T01:18:47.826Z,0.00
2023-03-22T01:19:48.508Z,0.00
2023-03-22T01:20:49.230Z,0.00
2023-03-22T01:21:49.931Z,0.00
2023-03-22T01:23:12.150Z,0.00
2023-03-22T01:23:51.333Z,0.00
2023-03-22T01:24:52.019Z,0.00
2023-03-22T01:25:52.725Z,0.00
2023-03-22T01:26:53.435Z,0.00
2023-03-22T01:27:54.155Z,0.00
2023-03-22T01:28:55.116Z,0.00
2023-03-22T01:29:55.818Z,0.00
2023-03-22T01:30:56.604Z,0.00
2023-03-22T01:31:57.255Z,0.00
2023-03-22T01:32:57.965Z,0.00
2023-03-22T01:33:59.140Z,0.00
2023-03-22T01:34:59.318Z,0.00
2023-03-22T01:36:00.134Z,0.00
2023-03-22T01:37:00.802Z,0.00
2023-03-22T01:38:01.513Z,0.00
2023-03-22T01:39:02.637Z,0.00
2023-03-22T01:40:02.808Z,0.00
2023-03-22T01:41:03.514Z,0.00
2023-03-22T01:42:25.218Z,0.00
2023-03-22T01:43:04.945Z,0.00
2023-03-22T01:44:06.122Z,0.00
2023-03-22T01:45:06.358Z,0.00
2023-03-22T01:46:07.094Z,0.00
2023-03-22T01:47:07.746Z,0.00
2023-03-22T01:48:08.469Z,0.00
2023-03-22T01:49:09.698Z,0.00
2023-03-22T01:50:09.874Z,0.00
2023-03-22T01:51:10.572Z,0.00
2023-03-22T01:52:11.289Z,0.00
2023-03-22T01:53:11.986Z,0.00
2023-03-22T01:54:13.141Z,0.00
2023-03-22T01:55:13.331Z,0.00
2023-03-22T01:56:14.061Z,0.00
2023-03-22T01:57:14.762Z,0.00
2023-03-22T01:58:15.467Z,0.00
2023-03-22T01:59:16.623Z,0.00
2023-03-22T02:00:16.832Z,0.00
2023-03-22T02:01:17.591Z,0.00
2023-03-22T02:02:18.287Z,0.00
2023-03-22T02:03:18.961Z,0.00
2023-03-22T02:04:20.145Z,0.00
2023-03-22T02:05:20.336Z,0.00
2023-03-22T02:06:21.053Z,0.00
2023-03-22T02:07:21.758Z,0.00
2023-03-22T02:08:22.473Z,0.00
2023-03-22T02:09:23.659Z,0.00
2023-03-22T02:10:23.847Z,0.00
2023-03-22T02:11:45.564Z,0.00
2023-03-22T02:12:25.259Z,0.00
2023-03-22T02:13:25.967Z,0.00
2023-03-22T02:14:27.472Z,0.00
2023-03-22T02:15:27.664Z,0.00
2023-03-22T02:16:28.371Z,0.00
2023-03-22T02:17:29.093Z,0.00
2023-03-22T02:18:29.785Z,0.00
2023-03-22T02:19:31.630Z,0.00
2023-03-22T02:20:31.310Z,0.00
2023-03-22T02:21:32.033Z,0.00
2023-03-22T02:22:32.744Z,0.00
2023-03-22T02:23:33.437Z,0.00
2023-03-22T02:24:55.166Z,0.00
2023-03-22T02:25:34.802Z,0.00
2023-03-22T02:26:35.511Z,0.00
2023-03-22T02:27:36.224Z,0.00
2023-03-22T02:28:36.925Z,0.00
2023-03-22T02:29:37.649Z,0.00
2023-03-22T02:30:38.943Z,0.00
2023-03-22T02:31:39.231Z,0.00
2023-03-22T02:32:39.937Z,0.00
2023-03-22T02:33:41.723Z,0.00
2023-03-22T02:34:41.459Z,0.00
2023-03-22T02:35:42.675Z,0.00
2023-03-22T02:36:42.920Z,0.00
2023-03-22T02:37:43.634Z,0.00
2023-03-22T02:38:44.336Z,0.00
2023-03-22T02:39:45.039Z,0.00
2023-03-22T02:40:45.784Z,0.00
2023-03-22T02:41:46.426Z,0.00
2023-03-22T02:42:47.126Z,0.00
2023-03-22T02:43:47.834Z,0.00
2023-03-22T02:44:48.539Z,0.00
2023-03-22T02:46:10.660Z,0.00
2023-03-22T02:46:49.870Z,0.00
2023-03-22T02:47:50.596Z,0.00
2023-03-22T02:48:51.241Z,0.00
2023-03-22T02:49:51.974Z,0.00
2023-03-22T02:50:52.651Z,0.00
2023-03-22T02:51:53.634Z,0.00
2023-03-22T02:52:54.338Z,0.00
2023-03-22T02:53:55.076Z,0.00
2023-03-22T02:54:55.786Z,0.00
2023-03-22T02:55:56.585Z,0.00
2023-03-22T02:56:57.635Z,0.00
2023-03-22T02:57:57.835Z,0.00
2023-03-22T02:58:58.760Z,0.00
2023-03-22T02:59:59.484Z,0.00
2023-03-22T03:01:00.280Z,0.00
2023-03-22T03:02:01.209Z,0.00
2023-03-22T03:03:01.873Z,0.00
2023-03-22T03:04:02.596Z,0.00
2023-03-22T03:05:03.319Z,0.00
2023-03-22T03:06:04.007Z,0.00
2023-03-22T03:07:05.138Z,0.00
2023-03-22T03:08:05.348Z,0.00
2023-03-22T03:09:06.053Z,0.00
2023-03-22T03:10:34.633Z,0.00
2023-03-22T03:11:07.376Z,0.00
2023-03-22T03:12:08.053Z,0.00
2023-03-22T03:13:08.763Z,0.00
2023-03-22T03:14:09.467Z,0.00
2023-03-22T03:15:10.173Z,0.00
2023-03-22T03:16:10.943Z,0.00
2023-03-22T03:17:11.631Z,0.00
2023-03-22T03:18:12.363Z,0.00
2023-03-22T03:19:13.049Z,0.00
2023-03-22T03:20:13.778Z,0.00
2023-03-22T03:21:14.454Z,0.00
2023-03-22T03:22:15.187Z,0.00
2023-03-22T03:23:15.897Z,0.00
2023-03-22T03:24:16.599Z,0.00
2023-03-22T03:25:17.304Z,0.00
2023-03-22T03:26:18.027Z,0.00
2023-03-22T03:27:18.719Z,0.00
2023-03-22T03:28:40.437Z,0.00
2023-03-22T03:29:20.136Z,0.00
2023-03-22T03:30:20.879Z,0.00
2023-03-22T03:31:21.582Z,0.00
2023-03-22T03:32:22.262Z,0.00
2023-03-22T03:33:22.965Z,0.00
2023-03-22T03:34:23.672Z,0.00
2023-03-22T03:35:24.418Z,0.00
2023-03-22T03:36:25.079Z,0.00
2023-03-22T03:37:26.137Z,0.00
2023-03-22T03:38:26.346Z,0.00
2023-03-22T03:39:27.053Z,0.00
2023-03-22T03:40:27.782Z,0.00
2023-03-22T03:41:28.496Z,0.00
2023-03-22T03:42:29.183Z,0.00
2023-03-22T03:43:29.893Z,0.00
2023-03-22T03:44:30.597Z,0.00
2023-03-22T03:45:31.348Z,0.00
2023-03-22T03:46:32.007Z,0.00
2023-03-22T03:47:33.138Z,0.00
2023-03-22T03:48:33.348Z,0.00
2023-03-22T03:49:34.052Z,0.00
2023-03-22T03:50:34.783Z,0.00
2023-03-22T03:51:35.466Z,0.00
2023-03-22T03:52:57.179Z,0.00
2023-03-22T03:53:36.886Z,0.00
2023-03-22T03:54:37.595Z,0.00
2023-03-22T03:55:38.288Z,0.00
2023-03-22T03:56:38.998Z,0.00
2023-03-22T03:57:39.722Z,0.00
2023-03-22T03:58:40.639Z,0.00
2023-03-22T03:59:41.352Z,0.00
2023-03-22T04:00:42.227Z,0.00
2023-03-22T04:01:42.900Z,0.00
2023-03-22T04:02:43.606Z,0.00
2023-03-22T04:03:44.640Z,0.00
2023-03-22T04:04:44.925Z,0.00
2023-03-22T04:05:45.641Z,0.00
2023-03-22T04:06:46.481Z,0.00
2023-03-22T04:07:47.190Z,0.00
2023-03-22T04:08:48.141Z,0.00
2023-03-22T04:09:48.848Z,0.00
2023-03-22T04:10:49.558Z,0.00
2023-03-22T04:12:26.127Z,0.00
2023-03-22T04:12:50.843Z,0.00
2023-03-22T04:13:51.544Z,0.00
2023-03-22T04:14:52.249Z,0.00
2023-03-22T04:15:52.957Z,0.00
2023-03-22T04:16:53.779Z,0.00
2023-03-22T04:17:54.432Z,0.00
2023-03-22T04:18:55.143Z,0.00
2023-03-22T04:19:55.849Z,0.00
2023-03-22T04:20:56.583Z,0.00
2023-03-22T04:21:57.265Z,0.00
2023-03-22T04:22:57.977Z,0.00
2023-03-22T04:23:59.154Z,0.00
2023-03-22T04:24:59.363Z,0.00
2023-03-22T04:26:00.089Z,0.00
2023-03-22T04:27:00.772Z,0.00
2023-03-22T04:28:01.500Z,0.00
2023-03-22T04:29:02.170Z,0.00
2023-03-22T04:30:02.875Z,0.00
2023-03-22T04:31:03.686Z,0.00
2023-03-22T04:32:04.346Z,0.00
2023-03-22T04:33:05.051Z,0.00
2023-03-22T04:34:06.143Z,0.00
2023-03-22T04:35:06.417Z,0.00
2023-03-22T04:36:07.077Z,0.00
2023-03-22T04:37:07.755Z,0.00
2023-03-22T04:38:08.464Z,0.00
2023-03-22T04:39:09.659Z,0.00
2023-03-22T04:40:09.851Z,0.00
2023-03-22T04:41:10.559Z,0.00
2023-03-22T04:42:11.303Z,0.00
2023-03-22T04:43:13.746Z,0.00
2023-03-22T04:44:12.522Z,0.00
2023-03-22T04:45:13.241Z,0.00
2023-03-22T04:46:13.987Z,0.00
2023-03-22T04:47:14.680Z,0.00
2023-03-22T04:48:15.406Z,0.00
2023-03-22T04:49:16.143Z,0.00
2023-03-22T04:50:16.852Z,0.00
2023-03-22T04:51:17.596Z,0.00
2023-03-22T04:52:18.282Z,0.00
2023-03-22T04:53:18.986Z,0.00
2023-03-22T04:54:41.145Z,0.00
2023-03-22T04:55:20.350Z,0.00
2023-03-22T04:56:21.089Z,0.00
2023-03-22T04:57:21.773Z,0.00
2023-03-22T04:58:22.495Z,0.00
2023-03-22T04:59:23.152Z,0.00
2023-03-22T05:00:23.878Z,0.00
2023-03-22T05:01:24.618Z,0.00
2023-03-22T05:02:25.334Z,0.00
2023-03-22T05:03:25.994Z,0.00
2023-03-22T05:04:26.697Z,0.00
2023-03-22T05:05:27.414Z,0.00
2023-03-22T05:06:28.150Z,0.00
2023-03-22T05:07:28.825Z,0.00
2023-03-22T05:08:29.531Z,0.00
2023-03-22T05:09:30.236Z,0.00
2023-03-22T05:10:31.147Z,0.00
2023-03-22T05:11:31.854Z,0.00
2023-03-22T05:12:32.567Z,0.00
2023-03-22T05:13:33.298Z,0.00
2023-03-22T05:14:34.000Z,0.00
2023-03-22T05:15:35.150Z,0.00
2023-03-22T05:16:35.364Z,0.00
2023-03-22T05:17:36.126Z,0.00
2023-03-22T05:18:36.840Z,0.00
2023-03-22T05:19:37.549Z,0.00
2023-03-22T05:20:39.034Z,0.00
2023-03-22T05:21:38.816Z,0.00
2023-03-22T05:22:39.502Z,0.00
2023-03-22T05:24:01.214Z,0.00
2023-03-22T05:24:40.935Z,5.62
2023-03-22T05:25:41.665Z,5.62
2023-03-22T05:26:42.490Z,5.62
2023-03-22T05:27:43.139Z,5.62
2023-03-22T05:28:43.869Z,5.62
2023-03-22T05:29:44.542Z,11.25
2023-03-22T05:30:45.255Z,11.25
2023-03-22T05:31:45.973Z,11.25
2023-03-22T05:32:46.669Z,11.25
2023-03-22T05:33:47.374Z,16.88
2023-03-22T05:34:48.081Z,16.88
2023-03-22T05:35:48.975Z,22.50
2023-03-22T05:37:10.648Z,22.50
2023-03-22T05:37:50.328Z,28.12
2023-03-22T05:38:51.037Z,33.75
2023-03-22T05:39:51.774Z,33.75
2023-03-22T05:40:52.500Z,39.38
2023-03-22T05:41:53.195Z,39.38
2023-03-22T05:42:53.903Z,39.38
2023-03-22T05:43:54.624Z,39.38
2023-03-22T05:44:55.325Z,39.38
2023-03-22T05:45:56.154Z,39.38
2023-03-22T05:46:56.873Z,39.38
2023-03-22T05:47:57.631Z,39.38
2023-03-22T05:48:58.298Z,39.38
2023-03-22T05:49:59.006Z,45.00
2023-03-22T05:51:00.152Z,50.62
2023-03-22T05:52:00.363Z,56.25
2023-03-22T05:53:01.093Z,56.25
2023-03-22T05:54:01.778Z,56.25
2023-03-22T05:55:02.484Z,61.88
2023-03-22T05:56:03.669Z,67.50
2023-03-22T05:57:03.868Z,67.50
2023-03-22T05:58:04.576Z,73.12
2023-03-22T05:59:05.302Z,78.75
2023-03-22T06:00:27.017Z,73.12
2023-03-22T06:01:07.176Z,61.88
2023-03-22T06:02:07.490Z,56.25
2023-03-22T06:03:08.295Z,56.25
2023-03-22T06:04:08.954Z,61.88
2023-03-22T06:05:09.657Z,67.50
2023-03-22T06:06:10.754Z,73.12
2023-03-22T06:07:10.911Z,61.88
2023-03-22T06:08:11.638Z,56.25
2023-03-22T06:09:17.391Z,67.50
2023-03-22T06:10:13.924Z,61.88
2023-03-22T06:11:13.659Z,67.50
2023-03-22T06:12:14.365Z,67.50
2023-03-22T06:13:15.136Z,73.12
2023-03-22T06:14:15.815Z,73.12
2023-03-22T06:15:16.462Z,78.75
2023-03-22T06:16:17.696Z,84.38
2023-03-22T06:17:17.870Z,84.38
2023-03-22T06:18:18.580Z,95.62
2023-03-22T06:19:19.283Z,101.25
2023-03-22T06:20:20.008Z,106.88
2023-03-22T06:21:20.720Z,118.12
2023-03-22T06:22:21.432Z,123.75
2023-03-22T06:23:22.161Z,135.00
2023-03-22T06:24:22.843Z,140.62
2023-03-22T06:25:23.547Z,140.62
2023-03-22T06:26:24.271Z,135.00
2023-03-22T06:27:24.977Z,140.62
2023-03-22T06:28:25.681Z,151.88
2023-03-22T06:29:47.396Z,163.12
2023-03-22T06:30:27.109Z,163.12
2023-03-22T06:31:28.178Z,157.50
2023-03-22T06:32:28.364Z,157.50
2023-03-22T06:33:29.084Z,157.50
2023-03-22T06:34:29.788Z,163.12
2023-03-22T06:35:30.515Z,174.38
2023-03-22T06:36:31.658Z,180.00
2023-03-22T06:37:31.867Z,168.75
2023-03-22T06:38:32.603Z,146.25
2023-03-22T06:39:33.284Z,123.75
2023-03-22T06:40:34.001Z,118.12
2023-03-22T06:41:35.161Z,106.88
2023-03-22T06:42:35.365Z,90.00
2023-03-22T06:43:36.109Z,106.88
2023-03-22T06:44:36.782Z,123.75
2023-03-22T06:45:37.591Z,140.62
2023-03-22T06:46:38.669Z,135.00
2023-03-22T06:47:38.878Z,118.12
2023-03-22T06:49:00.588Z,112.50
2023-03-22T06:49:40.348Z,123.75
2023-03-22T06:50:43.995Z,140.62
2023-03-22T06:51:42.162Z,106.88
2023-03-22T06:52:42.866Z,146.25
2023-03-22T06:53:43.707Z,163.12
2023-03-22T06:54:44.337Z,174.38
2023-03-22T06:55:45.046Z,191.25
2023-03-22T06:56:46.153Z,174.38
2023-03-22T06:57:46.378Z,180.00
2023-03-22T06:58:47.069Z,196.88
2023-03-22T06:59:47.778Z,202.50
2023-03-22T07:00:48.505Z,208.12
2023-03-22T07:01:49.657Z,219.38
2023-03-22T07:02:52.265Z,236.25
2023-03-22T07:03:50.363Z,241.88
2023-03-22T07:04:51.121Z,247.50
2023-03-22T07:05:51.787Z,236.25
2023-03-22T07:06:52.656Z,247.50
2023-03-22T07:07:53.356Z,264.38
2023-03-22T07:08:54.106Z,264.38
2023-03-22T07:09:54.785Z,270.00
2023-03-22T07:10:55.491Z,270.00
2023-03-22T07:11:56.656Z,264.38
2023-03-22T07:12:56.859Z,253.12
2023-03-22T07:13:57.574Z,253.12
2023-03-22T07:14:58.282Z,230.62
2023-03-22T07:15:59.036Z,225.00
2023-03-22T07:16:59.725Z,219.38
2023-03-22T07:18:00.429Z,247.50
2023-03-22T07:19:01.141Z,258.75
2023-03-22T07:20:01.849Z,236.25
2023-03-22T07:21:02.603Z,241.88
2023-03-22T07:22:03.692Z,264.38
2023-03-22T07:23:03.874Z,309.38
2023-03-22T07:24:04.605Z,315.00
2023-03-22T07:25:05.284Z,258.75
2023-03-22T07:26:05.991Z,247.50
2023-03-22T07:27:07.180Z,225.00
2023-03-22T07:28:07.416Z,213.75
2023-03-22T07:29:08.106Z,213.75
2023-03-22T07:30:09.805Z,213.75
2023-03-22T07:31:09.586Z,219.38
2023-03-22T07:32:10.681Z,225.00
2023-03-22T07:33:10.872Z,230.62
2023-03-22T07:34:11.589Z,236.25
2023-03-22T07:35:12.297Z,241.88
2023-03-22T07:36:13.008Z,247.50
2023-03-22T07:37:14.169Z,258.75
2023-03-22T07:38:14.363Z,270.00
2023-03-22T07:39:15.096Z,281.25
2023-03-22T07:40:15.788Z,292.50
2023-03-22T07:41:16.487Z,315.00
2023-03-22T07:42:17.674Z,331.88
2023-03-22T07:43:17.891Z,360.00
2023-03-22T07:44:18.655Z,399.38
2023-03-22T07:45:19.387Z,421.88
2023-03-22T07:46:20.199Z,427.50
2023-03-22T07:47:37.863Z,427.50
2023-03-22T07:48:23.044Z,455.62
2023-03-22T07:49:22.250Z,478.12
2023-03-22T07:50:22.974Z,466.88
2023-03-22T07:51:23.660Z,466.88
2023-03-22T07:52:24.702Z,483.75
2023-03-22T07:53:24.894Z,478.12
2023-03-22T07:54:33.475Z,472.50
2023-03-22T07:55:27.200Z,450.00
2023-03-22T07:56:26.908Z,528.75
2023-03-22T07:57:27.670Z,523.12
2023-03-22T07:58:28.379Z,444.38
2023-03-22T07:59:29.093Z,500.62
2023-03-22T08:00:29.891Z,528.75
2023-03-22T08:01:30.559Z,680.62
2023-03-22T08:02:31.678Z,793.12
2023-03-22T08:03:31.966Z,759.38
2023-03-22T08:04:32.611Z,708.75
2023-03-22T08:05:33.319Z,641.25
2023-03-22T08:06:34.027Z,675.00
2023-03-22T08:07:35.182Z,736.88
2023-03-22T08:08:35.386Z,669.38
2023-03-22T08:09:36.120Z,652.50
2023-03-22T08:10:37.035Z,596.25
2023-03-22T08:11:37.726Z,742.50
2023-03-22T08:12:38.676Z,933.75
2023-03-22T08:13:39.391Z,855.00
2023-03-22T08:14:40.097Z,995.62
2023-03-22T08:15:41.144Z,658.12
2023-03-22T08:16:41.550Z,579.38
2023-03-22T08:17:42.262Z,568.12
2023-03-22T08:18:44.412Z,500.62
2023-03-22T08:19:43.533Z,405.00
2023-03-22T08:20:44.253Z,382.50
2023-03-22T08:21:44.962Z,376.88
2023-03-22T08:22:46.185Z,393.75
2023-03-22T08:23:48.734Z,399.38
2023-03-22T08:24:46.988Z,438.75
2023-03-22T08:25:47.680Z,421.88
2023-03-22T08:26:48.375Z,523.12
2023-03-22T08:27:49.198Z,450.00
2023-03-22T08:28:49.906Z,450.00
2023-03-22T08:29:50.601Z,360.00
2023-03-22T08:30:51.304Z,348.75
2023-03-22T08:31:52.102Z,337.50
2023-03-22T08:32:52.761Z,365.62
2023-03-22T08:33:53.480Z,416.25
2023-03-22T08:34:54.178Z,433.12
2023-03-22T08:35:54.895Z,500.62
2023-03-22T08:36:55.577Z,495.00
2023-03-22T08:37:56.286Z,483.75
2023-03-22T08:38:57.009Z,573.75
2023-03-22T08:41:46.563Z,708.75
2023-03-22T08:42:47.241Z,556.88
2023-03-22T08:43:47.951Z,540.00
2023-03-22T08:44:48.656Z,517.50
2023-03-22T08:45:49.409Z,500.62
2023-03-22T08:46:50.179Z,506.25
2023-03-22T08:47:50.966Z,495.00
2023-03-22T08:48:51.613Z,427.50
2023-03-22T08:49:52.317Z,562.50
2023-03-22T08:50:53.025Z,511.88
2023-03-22T08:51:53.723Z,534.38
2023-03-22T08:52:54.428Z,607.50
2023-03-22T08:53:55.147Z,680.62
2023-03-22T08:54:55.854Z,691.88
2023-03-22T08:55:56.552Z,607.50
2023-03-22T08:56:57.274Z,703.12
2023-03-22T08:57:57.955Z,596.25
2023-03-22T08:58:58.671Z,765.00
2023-03-22T08:59:59.373Z,534.38
2023-03-22T09:01:00.230Z,556.88
2023-03-22T09:02:01.142Z,528.75
2023-03-22T09:03:01.810Z,635.62
2023-03-22T09:04:02.487Z,579.38
2023-03-22T09:05:03.158Z,562.50
2023-03-22T09:06:03.865Z,562.50
2023-03-22T09:07:04.571Z,1198.12
2023-03-22T09:08:06.549Z,601.88
2023-03-22T09:09:05.950Z,1085.62
2023-03-22T09:10:06.653Z,1299.38
2023-03-22T09:11:07.375Z,579.38
2023-03-22T09:12:08.098Z,534.38
2023-03-22T09:13:08.868Z,922.50
2023-03-22T09:14:09.582Z,703.12
2023-03-22T09:15:10.291Z,1288.12
2023-03-22T09:16:11.057Z,843.75
2023-03-22T09:17:11.710Z,635.62
2023-03-22T09:18:12.444Z,1260.00
2023-03-22T09:19:13.081Z,742.50
2023-03-22T09:20:13.800Z,748.12
2023-03-22T09:21:14.507Z,1271.25
2023-03-22T09:22:15.236Z,866.25
2023-03-22T09:23:15.934Z,781.88
2023-03-22T09:24:16.667Z,540.00
2023-03-22T09:25:17.369Z,511.88
2023-03-22T09:26:18.069Z,500.62
2023-03-22T09:27:18.779Z,511.88
2023-03-22T09:28:19.615Z,646.88
2023-03-22T09:29:20.312Z,579.38
2023-03-22T09:30:21.005Z,950.62
2023-03-22T09:31:21.739Z,849.38
2023-03-22T09:32:22.428Z,607.50
2023-03-22T09:33:23.151Z,916.88
2023-03-22T09:34:23.845Z,945.00
2023-03-22T09:35:24.612Z,1046.25
2023-03-22T09:36:25.273Z,680.62
2023-03-22T09:37:25.971Z,523.12
2023-03-22T09:38:26.677Z,804.38
2023-03-22T09:39:27.390Z,1400.62
2023-03-22T09:40:28.100Z,838.12
2023-03-22T09:41:28.799Z,832.50
2023-03-22T09:42:29.544Z,2103.75
2023-03-22T09:43:32.153Z,2109.38
2023-03-22T09:44:30.719Z,573.75
2023-03-22T09:45:31.422Z,691.88
2023-03-22T09:46:32.177Z,770.62
2023-03-22T09:47:43.905Z,652.50
2023-03-22T09:48:34.462Z,596.25
2023-03-22T09:49:46.901Z,1012.50
2023-03-22T09:50:35.860Z,731.25
2023-03-22T09:51:35.575Z,838.12
2023-03-22T09:52:36.297Z,832.50
2023-03-22T09:53:36.995Z,2109.38
2023-03-22T09:54:37.765Z,686.25
2023-03-22T09:55:38.800Z,613.12
2023-03-22T09:56:39.032Z,669.38
2023-03-22T09:57:39.755Z,2227.50
2023-03-22T09:58:40.506Z,2109.38
2023-03-22T09:59:41.265Z,1833.75
2023-03-22T10:00:42.049Z,1366.88
2023-03-22T10:01:42.968Z,950.62
2023-03-22T10:02:43.276Z,815.62
2023-03-22T10:03:44.059Z,731.25
2023-03-22T10:04:44.756Z,669.38
2023-03-22T10:05:45.465Z,720.00
2023-03-22T10:06:46.184Z,838.12
2023-03-22T10:07:47.154Z,736.88
2023-03-22T10:08:47.861Z,551.25
2023-03-22T10:09:48.783Z,573.75
2023-03-22T10:10:49.486Z,556.88
2023-03-22T10:11:50.177Z,1113.75
2023-03-22T10:12:50.911Z,776.25
2023-03-22T10:13:51.596Z,838.12
2023-03-22T10:14:52.760Z,748.12
2023-03-22T10:15:53.058Z,675.00
2023-03-22T10:16:55.342Z,776.25
2023-03-22T10:17:54.692Z,1338.75
2023-03-22T10:18:55.441Z,1946.25
2023-03-22T10:19:56.262Z,1721.25
2023-03-22T10:20:56.978Z,1839.38
2023-03-22T10:21:57.683Z,1507.50
2023-03-22T10:22:58.386Z,1378.12
2023-03-22T10:23:59.092Z,1198.12
2023-03-22T10:25:00.260Z,1237.50
2023-03-22T10:26:00.473Z,877.50
2023-03-22T10:27:01.180Z,894.38
2023-03-22T10:28:01.916Z,748.12
2023-03-22T10:29:03.799Z,821.25
2023-03-22T10:30:03.286Z,922.50
2023-03-22T10:31:05.889Z,753.75
2023-03-22T10:32:04.675Z,1501.88
2023-03-22T10:33:05.392Z,1468.12
2023-03-22T10:34:06.118Z,956.25
2023-03-22T10:35:06.765Z,1125.00
2023-03-22T10:36:07.512Z,894.38
2023-03-22T10:37:08.190Z,770.62
2023-03-22T10:38:08.929Z,765.00
2023-03-22T10:39:09.658Z,1389.38
2023-03-22T10:40:10.802Z,1102.50
2023-03-22T10:41:10.988Z,1901.25
2023-03-22T10:42:11.698Z,1850.62
2023-03-22T10:43:12.435Z,1906.88
2023-03-22T10:44:13.117Z,1552.50
2023-03-22T10:45:13.848Z,815.62
2023-03-22T10:46:14.614Z,1631.25
2023-03-22T10:47:15.268Z,1535.62
2023-03-22T10:48:19.136Z,1091.25
2023-03-22T10:49:16.516Z,1136.25
2023-03-22T10:50:17.507Z,804.38
2023-03-22T10:51:17.761Z,883.12
2023-03-22T10:52:18.464Z,1091.25
2023-03-22T10:53:19.166Z,742.50
2023-03-22T10:54:19.880Z,658.12
2023-03-22T10:55:20.800Z,1125.00
2023-03-22T10:56:21.495Z,787.50
2023-03-22T10:57:22.207Z,821.25
2023-03-22T10:58:22.937Z,776.25
2023-03-22T10:59:23.623Z,540.00
2023-03-22T11:00:25.397Z,517.50
2023-03-22T11:01:25.392Z,573.75
2023-03-22T11:02:26.224Z,916.88
2023-03-22T11:03:26.910Z,703.12
2023-03-22T11:04:27.674Z,973.12
2023-03-22T11:05:28.797Z,759.38
2023-03-22T11:06:29.013Z,646.88
2023-03-22T11:07:29.728Z,742.50
2023-03-22T11:08:30.450Z,793.12
2023-03-22T11:09:31.175Z,765.00
2023-03-22T11:10:32.340Z,776.25
2023-03-22T11:11:32.499Z,810.00
2023-03-22T11:12:33.196Z,838.12
2023-03-22T11:13:33.921Z,826.88
2023-03-22T11:14:34.610Z,956.25
2023-03-22T11:15:35.803Z,1040.62
2023-03-22T11:16:36.157Z,1299.38
2023-03-22T11:17:36.800Z,1260.00
2023-03-22T11:18:37.507Z,1288.12
2023-03-22T11:19:38.234Z,1192.50
2023-03-22T11:20:59.900Z,1141.88
2023-03-22T11:21:39.596Z,939.38
2023-03-22T11:22:40.303Z,1035.00
2023-03-22T11:23:41.013Z,871.88
2023-03-22T11:24:41.714Z,877.50
2023-03-22T11:25:42.423Z,956.25
2023-03-22T11:26:43.337Z,1012.50
2023-03-22T11:27:43.995Z,1096.88
2023-03-22T11:28:44.722Z,1102.50
2023-03-22T11:29:45.403Z,725.62
2023-03-22T11:30:46.108Z,703.12
2023-03-22T11:31:46.858Z,742.50
2023-03-22T11:32:47.636Z,652.50
2023-03-22T11:33:48.352Z,720.00
2023-03-22T11:34:49.076Z,748.12
2023-03-22T11:35:49.824Z,725.62
2023-03-22T11:36:50.779Z,776.25
2023-03-22T11:37:51.497Z,776.25
2023-03-22T11:38:52.188Z,742.50
2023-03-22T11:39:52.893Z,731.25
2023-03-22T11:40:53.610Z,675.00
2023-03-22T11:41:54.793Z,680.62
2023-03-22T11:42:54.999Z,641.25
2023-03-22T11:43:55.732Z,601.88
2023-03-22T11:44:56.405Z,585.00
2023-03-22T11:45:57.163Z,545.62
2023-03-22T11:46:58.292Z,523.12
2023-03-22T11:47:58.620Z,556.88
2023-03-22T11:49:01.140Z,562.50
2023-03-22T11:50:00.240Z,562.50
2023-03-22T11:51:00.872Z,556.88
2023-03-22T11:52:04.110Z,556.88
2023-03-22T11:53:02.388Z,545.62
2023-03-22T11:54:03.097Z,528.75
2023-03-22T11:55:03.823Z,517.50
2023-03-22T11:56:04.551Z,511.88
2023-03-22T11:57:05.304Z,517.50
2023-03-22T11:58:05.990Z,506.25
2023-03-22T11:59:06.726Z,489.38
2023-03-22T12:00:07.416Z,461.25
2023-03-22T12:01:08.115Z,444.38
2023-03-22T12:02:09.345Z,427.50
2023-03-22T12:03:09.698Z,399.38
2023-03-22T12:04:10.501Z,393.75
2023-03-22T12:05:11.281Z,388.12
2023-03-22T12:06:12.028Z,365.62
2023-03-22T12:07:12.787Z,365.62
2023-03-22T12:08:13.498Z,337.50
2023-03-22T12:09:14.203Z,315.00
2023-03-22T12:10:14.918Z,320.62
2023-03-22T12:11:15.618Z,320.62
2023-03-22T12:12:16.332Z,337.50
2023-03-22T12:13:17.052Z,371.25
2023-03-22T12:14:17.787Z,388.12
2023-03-22T12:15:18.471Z,399.38
2023-03-22T12:16:19.247Z,405.00
2023-03-22T12:17:19.987Z,405.00
2023-03-22T12:18:20.771Z,393.75
2023-03-22T12:19:21.467Z,382.50
2023-03-22T12:20:22.304Z,371.25
2023-03-22T12:21:22.937Z,376.88
2023-03-22T12:22:23.792Z,382.50
2023-03-22T12:23:24.503Z,393.75
2023-03-22T12:24:25.215Z,399.38
2023-03-22T12:25:25.927Z,382.50
2023-03-22T12:26:26.650Z,371.25
2023-03-22T12:27:27.368Z,365.62
2023-03-22T12:28:28.069Z,354.38
2023-03-22T12:29:28.798Z,343.12
2023-03-22T12:30:29.546Z,337.50
2023-03-22T12:31:30.275Z,337.50
2023-03-22T12:32:31.009Z,326.25
2023-03-22T12:33:31.694Z,309.38
2023-03-22T12:34:32.415Z,292.50
2023-03-22T12:35:33.161Z,281.25
2023-03-22T12:36:33.808Z,281.25
2023-03-22T12:37:34.525Z,281.25
2023-03-22T12:38:35.227Z,286.88
2023-03-22T12:39:35.932Z,298.12
2023-03-22T12:40:36.646Z,309.38
2023-03-22T12:41:37.340Z,326.25
2023-03-22T12:42:47.640Z,354.38
2023-03-22T12:43:39.664Z,388.12
2023-03-22T12:44:39.393Z,421.88
2023-03-22T12:45:40.344Z,461.25
2023-03-22T12:46:40.644Z,472.50
2023-03-22T12:47:42.058Z,489.38
2023-03-22T12:48:44.608Z,506.25
2023-03-22T12:49:43.177Z,517.50
2023-03-22T12:50:43.991Z,540.00
2023-03-22T12:51:44.623Z,568.12
2023-03-22T12:52:46.205Z,601.88
2023-03-22T12:53:45.970Z,573.75
2023-03-22T12:54:46.667Z,528.75
2023-03-22T12:55:47.374Z,461.25
2023-03-22T12:56:48.086Z,455.62
2023-03-22T12:57:48.812Z,444.38
2023-03-22T12:58:49.517Z,450.00
2023-03-22T12:59:50.246Z,438.75